sensor_id;sensor_type;location;lat;lon;timestamp;P1;durP1;ratioP1;P2;durP2;ratioP2
11933;SDS011;6026;48.784;9.198;2023-07-13T00:01:26;0.63;;;0.63;;
11933;SDS011;6026;48.784;9.198;2023-07-13T00:03:53;0.60;;;0.60;;
11933;SDS011;6026;48.784;9.198;2023-07-13T00:06:18;0.63;;;0.63;;
11933;SDS011;6026;48.784;9.198;2023-07-13T00:08:45;0.50;;;0.50;;
11933;SDS011;6026;48.784;9.198;2023-07-13T00:11:12;0.70;;;0.70;;
11933;SDS011;6026;48.784;9.198;2023-07-13T00:13:39;0.80;;;0.80;;
11933;SDS011;6026;48.784;9.198;2023-07-13T00:16:05;0.80;;;0.80;;
11933;SDS011;6026;48.784;9.198;2023-07-13T00:18:30;0.73;;;0.73;;
11933;SDS011;6026;48.784;9.198;2023-07-13T00:20:56;0.70;;;0.70;;
11933;SDS011;6026;48.784;9.198;2023-07-13T00:23:32;0.90;;;0.90;;
11933;SDS011;6026;48.784;9.198;2023-07-13T00:26:00;0.70;;;0.70;;
11933;SDS011;6026;48.784;9.198;2023-07-13T00:28:26;0.63;;;0.63;;
11933;SDS011;6026;48.784;9.198;2023-07-13T00:30:51;0.77;;;0.77;;
11933;SDS011;6026;48.784;9.198;2023-07-13T00:33:17;0.63;;;0.63;;
11933;SDS011;6026;48.784;9.198;2023-07-13T00:35:42;0.70;;;0.70;;
11933;SDS011;6026;48.784;9.198;2023-07-13T00:38:09;0.70;;;0.70;;
11933;SDS011;6026;48.784;9.198;2023-07-13T00:40:35;0.80;;;0.80;;
11933;SDS011;6026;48.784;9.198;2023-07-13T00:43:00;0.70;;;0.70;;
11933;SDS011;6026;48.784;9.198;2023-07-13T00:47:51;0.60;;;0.60;;
11933;SDS011;6026;48.784;9.198;2023-07-13T00:50:18;0.87;;;0.87;;
11933;SDS011;6026;48.784;9.198;2023-07-13T00:52:46;0.70;;;0.70;;
11933;SDS011;6026;48.784;9.198;2023-07-13T00:55:15;0.80;;;0.80;;
11933;SDS011;6026;48.784;9.198;2023-07-13T00:57:42;0.83;;;0.83;;
11933;SDS011;6026;48.784;9.198;2023-07-13T01:00:09;0.60;;;0.60;;
11933;SDS011;6026;48.784;9.198;2023-07-13T01:02:37;0.50;;;0.50;;
11933;SDS011;6026;48.784;9.198;2023-07-13T01:05:15;0.63;;;0.63;;
11933;SDS011;6026;48.784;9.198;2023-07-13T01:07:43;0.70;;;0.70;;
11933;SDS011;6026;48.784;9.198;2023-07-13T01:10:09;0.70;;;0.70;;
11933;SDS011;6026;48.784;9.198;2023-07-13T01:12:36;0.83;;;0.83;;
11933;SDS011;6026;48.784;9.198;2023-07-13T01:15:02;0.60;;;0.60;;
11933;SDS011;6026;48.784;9.198;2023-07-13T01:17:29;0.60;;;0.60;;
11933;SDS011;6026;48.784;9.198;2023-07-13T01:19:56;0.60;;;0.60;;
11933;SDS011;6026;48.784;9.198;2023-07-13T01:22:21;0.63;;;0.63;;
11933;SDS011;6026;48.784;9.198;2023-07-13T01:24:51;0.80;;;0.80;;
11933;SDS011;6026;48.784;9.198;2023-07-13T01:27:21;0.80;;;0.80;;
11933;SDS011;6026;48.784;9.198;2023-07-13T01:29:50;0.67;;;0.67;;
11933;SDS011;6026;48.784;9.198;2023-07-13T01:32:18;0.70;;;0.70;;
11933;SDS011;6026;48.784;9.198;2023-07-13T01:34:49;0.70;;;0.70;;
11933;SDS011;6026;48.784;9.198;2023-07-13T01:37:15;0.90;;;0.90;;
11933;SDS011;6026;48.784;9.198;2023-07-13T01:39:41;0.67;;;0.67;;
11933;SDS011;6026;48.784;9.198;2023-07-13T01:42:06;0.80;;;0.80;;
11933;SDS011;6026;48.784;9.198;2023-07-13T01:44:32;0.67;;;0.67;;
11933;SDS011;6026;48.784;9.198;2023-07-13T01:46:58;0.67;;;0.67;;
11933;SDS011;6026;48.784;9.198;2023-07-13T01:49:24;0.70;;;0.70;;
11933;SDS011;6026;48.784;9.198;2023-07-13T01:51:49;0.70;;;0.70;;
11933;SDS011;6026;48.784;9.198;2023-07-13T01:54:15;0.80;;;0.80;;
11933;SDS011;6026;48.784;9.198;2023-07-13T01:56:40;0.67;;;0.67;;
11933;SDS011;6026;48.784;9.198;2023-07-13T01:59:07;0.60;;;0.60;;
11933;SDS011;6026;48.784;9.198;2023-07-13T02:01:33;0.80;;;0.80;;
11933;SDS011;6026;48.784;9.198;2023-07-13T02:03:59;0.63;;;0.63;;
11933;SDS011;6026;48.784;9.198;2023-07-13T02:06:24;0.70;;;0.70;;
11933;SDS011;6026;48.784;9.198;2023-07-13T02:08:50;0.70;;;0.70;;
11933;SDS011;6026;48.784;9.198;2023-07-13T02:11:15;0.60;;;0.60;;
11933;SDS011;6026;48.784;9.198;2023-07-13T02:13:41;0.70;;;0.70;;
11933;SDS011;6026;48.784;9.198;2023-07-13T02:16:07;0.63;;;0.63;;
11933;SDS011;6026;48.784;9.198;2023-07-13T02:18:32;0.60;;;0.60;;
11933;SDS011;6026;48.784;9.198;2023-07-13T02:20:58;0.70;;;0.70;;
11933;SDS011;6026;48.784;9.198;2023-07-13T02:23:23;0.70;;;0.70;;
11933;SDS011;6026;48.784;9.198;2023-07-13T02:25:49;0.67;;;0.67;;
11933;SDS011;6026;48.784;9.198;2023-07-13T02:28:20;0.50;;;0.50;;
11933;SDS011;6026;48.784;9.198;2023-07-13T02:30:45;0.60;;;0.60;;
11933;SDS011;6026;48.784;9.198;2023-07-13T02:33:11;0.70;;;0.70;;
11933;SDS011;6026;48.784;9.198;2023-07-13T02:35:36;0.70;;;0.70;;
11933;SDS011;6026;48.784;9.198;2023-07-13T02:38:02;0.73;;;0.73;;
11933;SDS011;6026;48.784;9.198;2023-07-13T02:40:27;0.60;;;0.60;;
11933;SDS011;6026;48.784;9.198;2023-07-13T02:42:53;0.80;;;0.80;;
11933;SDS011;6026;48.784;9.198;2023-07-13T02:45:18;0.70;;;0.70;;
11933;SDS011;6026;48.784;9.198;2023-07-13T02:47:44;0.63;;;0.63;;
11933;SDS011;6026;48.784;9.198;2023-07-13T02:50:10;0.60;;;0.60;;
11933;SDS011;6026;48.784;9.198;2023-07-13T02:52:35;0.60;;;0.60;;
11933;SDS011;6026;48.784;9.198;2023-07-13T02:55:01;0.90;;;0.90;;
11933;SDS011;6026;48.784;9.198;2023-07-13T02:57:26;0.60;;;0.60;;
11933;SDS011;6026;48.784;9.198;2023-07-13T02:59:53;0.63;;;0.63;;
11933;SDS011;6026;48.784;9.198;2023-07-13T03:02:19;0.60;;;0.60;;
11933;SDS011;6026;48.784;9.198;2023-07-13T03:04:45;0.50;;;0.50;;
11933;SDS011;6026;48.784;9.198;2023-07-13T03:07:12;0.60;;;0.60;;
11933;SDS011;6026;48.784;9.198;2023-07-13T03:09:39;0.93;;;0.93;;
11933;SDS011;6026;48.784;9.198;2023-07-13T03:12:05;0.77;;;0.77;;
11933;SDS011;6026;48.784;9.198;2023-07-13T03:14:31;0.70;;;0.70;;
11933;SDS011;6026;48.784;9.198;2023-07-13T03:16:56;0.60;;;0.60;;
11933;SDS011;6026;48.784;9.198;2023-07-13T03:19:22;0.80;;;0.80;;
11933;SDS011;6026;48.784;9.198;2023-07-13T03:21:47;0.80;;;0.80;;
11933;SDS011;6026;48.784;9.198;2023-07-13T03:24:13;0.60;;;0.60;;
11933;SDS011;6026;48.784;9.198;2023-07-13T03:26:38;0.63;;;0.63;;
11933;SDS011;6026;48.784;9.198;2023-07-13T03:29:04;0.67;;;0.67;;
11933;SDS011;6026;48.784;9.198;2023-07-13T03:31:32;0.80;;;0.80;;
11933;SDS011;6026;48.784;9.198;2023-07-13T03:33:59;0.70;;;0.70;;
11933;SDS011;6026;48.784;9.198;2023-07-13T03:36:26;0.50;;;0.50;;
11933;SDS011;6026;48.784;9.198;2023-07-13T03:38:54;0.83;;;0.83;;
11933;SDS011;6026;48.784;9.198;2023-07-13T03:41:22;0.70;;;0.70;;
11933;SDS011;6026;48.784;9.198;2023-07-13T03:43:48;0.63;;;0.63;;
11933;SDS011;6026;48.784;9.198;2023-07-13T03:46:14;0.50;;;0.50;;
11933;SDS011;6026;48.784;9.198;2023-07-13T03:48:41;0.60;;;0.60;;
11933;SDS011;6026;48.784;9.198;2023-07-13T03:51:10;0.60;;;0.60;;
11933;SDS011;6026;48.784;9.198;2023-07-13T03:53:38;0.80;;;0.80;;
11933;SDS011;6026;48.784;9.198;2023-07-13T03:56:05;0.70;;;0.70;;
11933;SDS011;6026;48.784;9.198;2023-07-13T03:58:33;0.60;;;0.60;;
11933;SDS011;6026;48.784;9.198;2023-07-13T04:01:01;0.77;;;0.77;;
11933;SDS011;6026;48.784;9.198;2023-07-13T04:03:30;0.73;;;0.73;;
11933;SDS011;6026;48.784;9.198;2023-07-13T04:05:58;0.60;;;0.60;;
11933;SDS011;6026;48.784;9.198;2023-07-13T04:08:32;0.70;;;0.70;;
11933;SDS011;6026;48.784;9.198;2023-07-13T04:10:59;0.67;;;0.67;;
11933;SDS011;6026;48.784;9.198;2023-07-13T04:13:25;0.57;;;0.57;;
11933;SDS011;6026;48.784;9.198;2023-07-13T04:15:51;0.70;;;0.70;;
11933;SDS011;6026;48.784;9.198;2023-07-13T04:18:18;0.50;;;0.50;;
11933;SDS011;6026;48.784;9.198;2023-07-13T04:20:44;0.77;;;0.77;;
11933;SDS011;6026;48.784;9.198;2023-07-13T04:23:11;0.73;;;0.73;;
11933;SDS011;6026;48.784;9.198;2023-07-13T04:25:37;0.70;;;0.70;;
11933;SDS011;6026;48.784;9.198;2023-07-13T04:28:02;0.63;;;0.63;;
11933;SDS011;6026;48.784;9.198;2023-07-13T04:30:29;0.67;;;0.67;;
11933;SDS011;6026;48.784;9.198;2023-07-13T04:32:54;0.80;;;0.80;;
11933;SDS011;6026;48.784;9.198;2023-07-13T04:35:20;0.80;;;0.80;;
11933;SDS011;6026;48.784;9.198;2023-07-13T04:37:47;0.73;;;0.73;;
11933;SDS011;6026;48.784;9.198;2023-07-13T04:40:15;0.60;;;0.60;;
11933;SDS011;6026;48.784;9.198;2023-07-13T04:42:42;0.77;;;0.77;;
11933;SDS011;6026;48.784;9.198;2023-07-13T04:45:07;0.70;;;0.70;;
11933;SDS011;6026;48.784;9.198;2023-07-13T04:47:34;0.60;;;0.60;;
11933;SDS011;6026;48.784;9.198;2023-07-13T04:50:00;0.60;;;0.60;;
11933;SDS011;6026;48.784;9.198;2023-07-13T04:52:26;0.77;;;0.77;;
11933;SDS011;6026;48.784;9.198;2023-07-13T04:54:51;0.63;;;0.63;;
11933;SDS011;6026;48.784;9.198;2023-07-13T04:57:17;0.60;;;0.60;;
11933;SDS011;6026;48.784;9.198;2023-07-13T04:59:43;0.40;;;0.40;;
11933;SDS011;6026;48.784;9.198;2023-07-13T05:02:08;0.80;;;0.80;;
11933;SDS011;6026;48.784;9.198;2023-07-13T05:04:34;0.80;;;0.80;;
11933;SDS011;6026;48.784;9.198;2023-07-13T05:07:00;1.00;;;1.00;;
11933;SDS011;6026;48.784;9.198;2023-07-13T05:09:26;0.80;;;0.80;;
11933;SDS011;6026;48.784;9.198;2023-07-13T05:11:51;0.60;;;0.60;;
11933;SDS011;6026;48.784;9.198;2023-07-13T05:14:17;0.70;;;0.70;;
11933;SDS011;6026;48.784;9.198;2023-07-13T05:16:43;0.50;;;0.50;;
11933;SDS011;6026;48.784;9.198;2023-07-13T05:19:09;0.63;;;0.63;;
11933;SDS011;6026;48.784;9.198;2023-07-13T05:21:35;0.50;;;0.50;;
11933;SDS011;6026;48.784;9.198;2023-07-13T05:24:01;0.77;;;0.77;;
11933;SDS011;6026;48.784;9.198;2023-07-13T05:26:26;0.70;;;0.70;;
11933;SDS011;6026;48.784;9.198;2023-07-13T05:28:52;0.63;;;0.63;;
11933;SDS011;6026;48.784;9.198;2023-07-13T05:31:18;0.80;;;0.80;;
11933;SDS011;6026;48.784;9.198;2023-07-13T05:33:43;0.80;;;0.80;;
11933;SDS011;6026;48.784;9.198;2023-07-13T05:36:09;0.70;;;0.70;;
11933;SDS011;6026;48.784;9.198;2023-07-13T05:38:34;0.70;;;0.70;;
11933;SDS011;6026;48.784;9.198;2023-07-13T05:41:00;0.60;;;0.60;;
11933;SDS011;6026;48.784;9.198;2023-07-13T05:43:25;0.60;;;0.60;;
11933;SDS011;6026;48.784;9.198;2023-07-13T05:45:55;0.50;;;0.50;;
11933;SDS011;6026;48.784;9.198;2023-07-13T05:48:21;0.70;;;0.70;;
11933;SDS011;6026;48.784;9.198;2023-07-13T05:50:47;0.60;;;0.60;;
11933;SDS011;6026;48.784;9.198;2023-07-13T05:53:13;0.70;;;0.70;;
11933;SDS011;6026;48.784;9.198;2023-07-13T05:55:42;0.87;;;0.87;;
11933;SDS011;6026;48.784;9.198;2023-07-13T05:58:09;0.70;;;0.70;;
11933;SDS011;6026;48.784;9.198;2023-07-13T06:00:35;0.70;;;0.70;;
11933;SDS011;6026;48.784;9.198;2023-07-13T06:03:00;0.70;;;0.70;;
11933;SDS011;6026;48.784;9.198;2023-07-13T06:05:26;0.70;;;0.70;;
11933;SDS011;6026;48.784;9.198;2023-07-13T06:07:53;0.80;;;0.80;;
11933;SDS011;6026;48.784;9.198;2023-07-13T06:10:18;0.60;;;0.60;;
11933;SDS011;6026;48.784;9.198;2023-07-13T06:12:44;0.80;;;0.80;;
11933;SDS011;6026;48.784;9.198;2023-07-13T06:15:09;0.60;;;0.60;;
11933;SDS011;6026;48.784;9.198;2023-07-13T06:17:35;0.70;;;0.70;;
11933;SDS011;6026;48.784;9.198;2023-07-13T06:20:01;0.57;;;0.57;;
11933;SDS011;6026;48.784;9.198;2023-07-13T06:22:26;0.70;;;0.70;;
11933;SDS011;6026;48.784;9.198;2023-07-13T06:24:52;0.70;;;0.70;;
11933;SDS011;6026;48.784;9.198;2023-07-13T06:27:17;0.93;;;0.93;;
11933;SDS011;6026;48.784;9.198;2023-07-13T06:29:43;0.65;;;0.65;;
11933;SDS011;6026;48.784;9.198;2023-07-13T06:32:10;1.00;;;1.00;;
11933;SDS011;6026;48.784;9.198;2023-07-13T06:34:35;1.00;;;1.00;;
11933;SDS011;6026;48.784;9.198;2023-07-13T06:37:01;1.00;;;1.00;;
11933;SDS011;6026;48.784;9.198;2023-07-13T06:39:27;1.10;;;1.10;;
11933;SDS011;6026;48.784;9.198;2023-07-13T06:41:52;1.17;;;1.17;;
11933;SDS011;6026;48.784;9.198;2023-07-13T06:44:18;1.20;;;1.20;;
11933;SDS011;6026;48.784;9.198;2023-07-13T06:46:43;1.30;;;1.30;;
11933;SDS011;6026;48.784;9.198;2023-07-13T06:49:09;1.30;;;1.30;;
11933;SDS011;6026;48.784;9.198;2023-07-13T06:51:34;1.30;;;1.30;;
11933;SDS011;6026;48.784;9.198;2023-07-13T06:54:00;1.30;;;1.30;;
11933;SDS011;6026;48.784;9.198;2023-07-13T06:56:26;1.25;;;1.25;;
11933;SDS011;6026;48.784;9.198;2023-07-13T06:58:51;1.20;;;1.20;;
11933;SDS011;6026;48.784;9.198;2023-07-13T07:01:17;1.20;;;1.20;;
11933;SDS011;6026;48.784;9.198;2023-07-13T07:03:42;1.30;;;1.30;;
11933;SDS011;6026;48.784;9.198;2023-07-13T07:08:40;1.30;;;1.30;;
11933;SDS011;6026;48.784;9.198;2023-07-13T07:11:12;1.30;;;1.30;;
11933;SDS011;6026;48.784;9.198;2023-07-13T07:13:40;1.33;;;1.33;;
11933;SDS011;6026;48.784;9.198;2023-07-13T07:16:07;1.50;;;1.50;;
11933;SDS011;6026;48.784;9.198;2023-07-13T07:18:34;1.80;;;1.70;;
11933;SDS011;6026;48.784;9.198;2023-07-13T07:21:00;1.65;;;1.65;;
11933;SDS011;6026;48.784;9.198;2023-07-13T07:23:25;1.70;;;1.70;;
11933;SDS011;6026;48.784;9.198;2023-07-13T07:25:51;1.90;;;1.80;;
11933;SDS011;6026;48.784;9.198;2023-07-13T07:28:17;1.90;;;1.80;;
11933;SDS011;6026;48.784;9.198;2023-07-13T07:30:46;2.08;;;1.98;;
11933;SDS011;6026;48.784;9.198;2023-07-13T07:33:13;2.20;;;2.10;;
11933;SDS011;6026;48.784;9.198;2023-07-13T07:35:39;2.10;;;2.00;;
11933;SDS011;6026;48.784;9.198;2023-07-13T07:38:05;2.20;;;2.10;;
11933;SDS011;6026;48.784;9.198;2023-07-13T07:40:30;2.30;;;2.20;;
11933;SDS011;6026;48.784;9.198;2023-07-13T07:42:56;2.40;;;2.30;;
11933;SDS011;6026;48.784;9.198;2023-07-13T07:45:22;2.40;;;2.30;;
11933;SDS011;6026;48.784;9.198;2023-07-13T07:47:48;2.40;;;2.30;;
11933;SDS011;6026;48.784;9.198;2023-07-13T07:50:14;2.20;;;2.10;;
11933;SDS011;6026;48.784;9.198;2023-07-13T07:52:40;2.40;;;2.30;;
11933;SDS011;6026;48.784;9.198;2023-07-13T07:55:06;2.40;;;2.30;;
11933;SDS011;6026;48.784;9.198;2023-07-13T07:57:32;2.50;;;2.40;;
11933;SDS011;6026;48.784;9.198;2023-07-13T07:59:57;2.50;;;2.40;;
11933;SDS011;6026;48.784;9.198;2023-07-13T08:02:24;2.50;;;2.40;;
11933;SDS011;6026;48.784;9.198;2023-07-13T08:04:50;2.50;;;2.40;;
11933;SDS011;6026;48.784;9.198;2023-07-13T08:07:16;2.60;;;2.50;;
11933;SDS011;6026;48.784;9.198;2023-07-13T08:09:42;2.60;;;2.50;;
11933;SDS011;6026;48.784;9.198;2023-07-13T08:12:08;2.70;;;2.60;;
11933;SDS011;6026;48.784;9.198;2023-07-13T08:14:33;2.60;;;2.50;;
11933;SDS011;6026;48.784;9.198;2023-07-13T08:16:59;2.53;;;2.42;;
11933;SDS011;6026;48.784;9.198;2023-07-13T08:19:24;2.78;;;2.67;;
11933;SDS011;6026;48.784;9.198;2023-07-13T08:21:50;2.65;;;2.55;;
11933;SDS011;6026;48.784;9.198;2023-07-13T08:24:15;2.70;;;2.60;;
11933;SDS011;6026;48.784;9.198;2023-07-13T08:26:43;2.80;;;2.70;;
11933;SDS011;6026;48.784;9.198;2023-07-13T08:29:10;2.60;;;2.50;;
11933;SDS011;6026;48.784;9.198;2023-07-13T08:31:35;2.70;;;2.60;;
11933;SDS011;6026;48.784;9.198;2023-07-13T08:34:01;2.70;;;2.60;;
11933;SDS011;6026;48.784;9.198;2023-07-13T08:36:27;2.97;;;2.80;;
11933;SDS011;6026;48.784;9.198;2023-07-13T08:38:53;2.70;;;2.60;;
11933;SDS011;6026;48.784;9.198;2023-07-13T08:41:19;2.60;;;2.50;;
11933;SDS011;6026;48.784;9.198;2023-07-13T08:43:50;3.08;;;2.88;;
11933;SDS011;6026;48.784;9.198;2023-07-13T08:48:52;2.70;;;2.60;;
11933;SDS011;6026;48.784;9.198;2023-07-13T08:54:51;2.60;;;2.50;;
11933;SDS011;6026;48.784;9.198;2023-07-13T08:57:20;2.67;;;2.58;;
11933;SDS011;6026;48.784;9.198;2023-07-13T08:59:53;2.70;;;2.60;;
11933;SDS011;6026;48.784;9.198;2023-07-13T09:02:32;2.40;;;2.30;;
11933;SDS011;6026;48.784;9.198;2023-07-13T09:05:03;2.20;;;2.10;;
11933;SDS011;6026;48.784;9.198;2023-07-13T09:07:36;2.20;;;2.10;;
11933;SDS011;6026;48.784;9.198;2023-07-13T09:10:31;1.85;;;1.75;;
11933;SDS011;6026;48.784;9.198;2023-07-13T09:15:46;1.80;;;1.70;;
11933;SDS011;6026;48.784;9.198;2023-07-13T09:18:15;1.63;;;1.63;;
11933;SDS011;6026;48.784;9.198;2023-07-13T09:20:49;1.80;;;1.70;;
11933;SDS011;6026;48.784;9.198;2023-07-13T09:23:28;1.50;;;1.50;;
11933;SDS011;6026;48.784;9.198;2023-07-13T09:25:59;1.60;;;1.60;;
11933;SDS011;6026;48.784;9.198;2023-07-13T09:28:29;1.50;;;1.50;;
11933;SDS011;6026;48.784;9.198;2023-07-13T09:31:07;1.60;;;1.60;;
11933;SDS011;6026;48.784;9.198;2023-07-13T09:33:38;1.90;;;1.80;;
11933;SDS011;6026;48.784;9.198;2023-07-13T09:36:18;2.00;;;1.90;;
11933;SDS011;6026;48.784;9.198;2023-07-13T09:41:53;1.83;;;1.73;;
11933;SDS011;6026;48.784;9.198;2023-07-13T09:44:36;1.60;;;1.60;;
11933;SDS011;6026;48.784;9.198;2023-07-13T09:47:14;1.50;;;1.50;;
11933;SDS011;6026;48.784;9.198;2023-07-13T09:49:43;1.50;;;1.50;;
11933;SDS011;6026;48.784;9.198;2023-07-13T09:52:14;1.60;;;1.60;;
11933;SDS011;6026;48.784;9.198;2023-07-13T09:54:44;1.90;;;1.80;;
11933;SDS011;6026;48.784;9.198;2023-07-13T09:57:16;1.90;;;1.80;;
11933;SDS011;6026;48.784;9.198;2023-07-13T09:59:45;1.80;;;1.70;;
11933;SDS011;6026;48.784;9.198;2023-07-13T10:02:23;1.90;;;1.80;;
11933;SDS011;6026;48.784;9.198;2023-07-13T10:04:55;1.90;;;1.80;;
11933;SDS011;6026;48.784;9.198;2023-07-13T10:07:23;1.90;;;1.80;;
11933;SDS011;6026;48.784;9.198;2023-07-13T10:09:53;1.90;;;1.80;;
11933;SDS011;6026;48.784;9.198;2023-07-13T10:12:20;1.80;;;1.70;;
11933;SDS011;6026;48.784;9.198;2023-07-13T10:14:47;1.90;;;1.80;;
11933;SDS011;6026;48.784;9.198;2023-07-13T10:17:13;1.90;;;1.80;;
11933;SDS011;6026;48.784;9.198;2023-07-13T10:19:40;1.90;;;1.80;;
11933;SDS011;6026;48.784;9.198;2023-07-13T10:22:23;1.90;;;1.80;;
11933;SDS011;6026;48.784;9.198;2023-07-13T10:24:54;1.80;;;1.70;;
11933;SDS011;6026;48.784;9.198;2023-07-13T10:27:23;1.80;;;1.70;;
11933;SDS011;6026;48.784;9.198;2023-07-13T10:32:48;1.80;;;1.70;;
11933;SDS011;6026;48.784;9.198;2023-07-13T10:35:15;1.80;;;1.70;;
11933;SDS011;6026;48.784;9.198;2023-07-13T10:40:22;1.70;;;1.70;;
11933;SDS011;6026;48.784;9.198;2023-07-13T10:42:54;1.80;;;1.70;;
11933;SDS011;6026;48.784;9.198;2023-07-13T10:45:23;1.60;;;1.60;;
11933;SDS011;6026;48.784;9.198;2023-07-13T10:47:50;1.40;;;1.40;;
11933;SDS011;6026;48.784;9.198;2023-07-13T10:50:25;1.50;;;1.50;;
11933;SDS011;6026;48.784;9.198;2023-07-13T10:52:53;1.40;;;1.40;;
11933;SDS011;6026;48.784;9.198;2023-07-13T10:56:22;1.30;;;1.30;;
11933;SDS011;6026;48.784;9.198;2023-07-13T10:58:35;1.30;;;1.30;;
11933;SDS011;6026;48.784;9.198;2023-07-13T11:01:15;1.20;;;1.20;;
11933;SDS011;6026;48.784;9.198;2023-07-13T11:19:07;1.40;;;1.40;;
11933;SDS011;6026;48.784;9.198;2023-07-13T11:32:44;1.30;;;1.30;;
11933;SDS011;6026;48.784;9.198;2023-07-13T11:35:13;1.20;;;1.20;;
11933;SDS011;6026;48.784;9.198;2023-07-13T11:37:44;1.20;;;1.20;;
11933;SDS011;6026;48.784;9.198;2023-07-13T11:40:12;1.30;;;1.30;;
11933;SDS011;6026;48.784;9.198;2023-07-13T11:42:39;1.40;;;1.40;;
11933;SDS011;6026;48.784;9.198;2023-07-13T11:45:12;1.30;;;1.30;;
11933;SDS011;6026;48.784;9.198;2023-07-13T11:47:45;1.27;;;1.27;;
11933;SDS011;6026;48.784;9.198;2023-07-13T11:50:20;1.40;;;1.40;;
11933;SDS011;6026;48.784;9.198;2023-07-13T11:52:48;1.30;;;1.30;;
11933;SDS011;6026;48.784;9.198;2023-07-13T11:55:18;1.30;;;1.30;;
11933;SDS011;6026;48.784;9.198;2023-07-13T12:00:22;1.20;;;1.20;;
11933;SDS011;6026;48.784;9.198;2023-07-13T12:02:52;1.20;;;1.20;;
11933;SDS011;6026;48.784;9.198;2023-07-13T12:05:20;1.20;;;1.20;;
11933;SDS011;6026;48.784;9.198;2023-07-13T12:07:46;1.20;;;1.20;;
11933;SDS011;6026;48.784;9.198;2023-07-13T12:12:40;1.20;;;1.20;;
11933;SDS011;6026;48.784;9.198;2023-07-13T12:15:12;1.20;;;1.20;;
11933;SDS011;6026;48.784;9.198;2023-07-13T12:17:38;1.30;;;1.30;;
11933;SDS011;6026;48.784;9.198;2023-07-13T12:20:25;1.20;;;1.20;;
11933;SDS011;6026;48.784;9.198;2023-07-13T12:23:05;1.20;;;1.20;;
11933;SDS011;6026;48.784;9.198;2023-07-13T12:25:57;1.20;;;1.20;;
11933;SDS011;6026;48.784;9.198;2023-07-13T12:28:31;1.20;;;1.20;;
11933;SDS011;6026;48.784;9.198;2023-07-13T12:31:04;1.20;;;1.20;;
11933;SDS011;6026;48.784;9.198;2023-07-13T12:33:47;1.17;;;1.17;;
11933;SDS011;6026;48.784;9.198;2023-07-13T12:36:12;1.13;;;1.13;;
11933;SDS011;6026;48.784;9.198;2023-07-13T12:38:38;1.20;;;1.20;;
11933;SDS011;6026;48.784;9.198;2023-07-13T12:41:05;1.10;;;1.10;;
11933;SDS011;6026;48.784;9.198;2023-07-13T12:43:34;1.13;;;1.13;;
11933;SDS011;6026;48.784;9.198;2023-07-13T12:46:05;1.20;;;1.20;;
11933;SDS011;6026;48.784;9.198;2023-07-13T12:48:47;1.10;;;1.10;;
11933;SDS011;6026;48.784;9.198;2023-07-13T12:51:17;1.10;;;1.10;;
11933;SDS011;6026;48.784;9.198;2023-07-13T12:53:50;1.20;;;1.20;;
11933;SDS011;6026;48.784;9.198;2023-07-13T12:56:25;1.20;;;1.20;;
11933;SDS011;6026;48.784;9.198;2023-07-13T12:58:56;1.30;;;1.30;;
11933;SDS011;6026;48.784;9.198;2023-07-13T13:01:26;1.10;;;1.10;;
11933;SDS011;6026;48.784;9.198;2023-07-13T13:03:54;1.25;;;1.25;;
11933;SDS011;6026;48.784;9.198;2023-07-13T13:06:22;1.20;;;1.20;;
11933;SDS011;6026;48.784;9.198;2023-07-13T13:08:50;1.20;;;1.20;;
11933;SDS011;6026;48.784;9.198;2023-07-13T13:11:27;1.20;;;1.20;;
11933;SDS011;6026;48.784;9.198;2023-07-13T13:13:54;1.20;;;1.20;;
11933;SDS011;6026;48.784;9.198;2023-07-13T13:18:57;1.20;;;1.20;;
11933;SDS011;6026;48.784;9.198;2023-07-13T13:21:27;1.20;;;1.20;;
11933;SDS011;6026;48.784;9.198;2023-07-13T13:23:53;1.30;;;1.30;;
11933;SDS011;6026;48.784;9.198;2023-07-13T13:26:19;1.00;;;1.00;;
11933;SDS011;6026;48.784;9.198;2023-07-13T13:28:46;1.20;;;1.20;;
11933;SDS011;6026;48.784;9.198;2023-07-13T13:31:13;1.17;;;1.17;;
11933;SDS011;6026;48.784;9.198;2023-07-13T13:33:40;1.10;;;1.10;;
11933;SDS011;6026;48.784;9.198;2023-07-13T13:36:18;1.10;;;1.10;;
11933;SDS011;6026;48.784;9.198;2023-07-13T13:38:46;1.15;;;1.15;;
11933;SDS011;6026;48.784;9.198;2023-07-13T13:41:13;1.10;;;1.10;;
11933;SDS011;6026;48.784;9.198;2023-07-13T13:43:40;1.10;;;1.10;;
11933;SDS011;6026;48.784;9.198;2023-07-13T13:46:14;1.15;;;1.15;;
11933;SDS011;6026;48.784;9.198;2023-07-13T13:48:42;1.15;;;1.15;;
11933;SDS011;6026;48.784;9.198;2023-07-13T13:51:18;1.50;;;1.50;;
11933;SDS011;6026;48.784;9.198;2023-07-13T13:53:45;1.20;;;1.20;;
11933;SDS011;6026;48.784;9.198;2023-07-13T13:56:12;1.20;;;1.20;;
11933;SDS011;6026;48.784;9.198;2023-07-13T13:58:38;1.13;;;1.13;;
11933;SDS011;6026;48.784;9.198;2023-07-13T14:01:04;1.10;;;1.10;;
11933;SDS011;6026;48.784;9.198;2023-07-13T14:03:33;1.20;;;1.20;;
11933;SDS011;6026;48.784;9.198;2023-07-13T14:05:59;1.10;;;1.10;;
11933;SDS011;6026;48.784;9.198;2023-07-13T14:08:25;1.10;;;1.10;;
11933;SDS011;6026;48.784;9.198;2023-07-13T14:10:51;1.00;;;1.00;;
11933;SDS011;6026;48.784;9.198;2023-07-13T14:13:28;1.10;;;1.10;;
11933;SDS011;6026;48.784;9.198;2023-07-13T14:16:01;1.10;;;1.10;;
11933;SDS011;6026;48.784;9.198;2023-07-13T14:18:27;1.05;;;1.05;;
11933;SDS011;6026;48.784;9.198;2023-07-13T14:20:53;0.93;;;0.93;;
11933;SDS011;6026;48.784;9.198;2023-07-13T14:23:18;1.08;;;1.08;;
11933;SDS011;6026;48.784;9.198;2023-07-13T14:25:45;1.10;;;1.10;;
11933;SDS011;6026;48.784;9.198;2023-07-13T14:28:17;1.05;;;1.05;;
11933;SDS011;6026;48.784;9.198;2023-07-13T14:30:51;1.10;;;1.10;;
11933;SDS011;6026;48.784;9.198;2023-07-13T14:33:19;1.10;;;1.10;;
11933;SDS011;6026;48.784;9.198;2023-07-13T14:35:45;1.10;;;1.10;;
11933;SDS011;6026;48.784;9.198;2023-07-13T14:38:13;1.13;;;1.13;;
11933;SDS011;6026;48.784;9.198;2023-07-13T14:40:40;1.17;;;1.17;;
11933;SDS011;6026;48.784;9.198;2023-07-13T14:43:09;1.10;;;1.10;;
11933;SDS011;6026;48.784;9.198;2023-07-13T14:45:37;1.17;;;1.17;;
11933;SDS011;6026;48.784;9.198;2023-07-13T14:48:24;1.10;;;1.10;;
11933;SDS011;6026;48.784;9.198;2023-07-13T14:50:53;1.17;;;1.17;;
11933;SDS011;6026;48.784;9.198;2023-07-13T14:53:20;1.10;;;1.10;;
11933;SDS011;6026;48.784;9.198;2023-07-13T14:55:46;1.10;;;1.10;;
11933;SDS011;6026;48.784;9.198;2023-07-13T14:58:12;1.10;;;1.10;;
11933;SDS011;6026;48.784;9.198;2023-07-13T15:00:38;1.17;;;1.17;;
11933;SDS011;6026;48.784;9.198;2023-07-13T15:03:05;1.10;;;1.10;;
11933;SDS011;6026;48.784;9.198;2023-07-13T15:05:40;1.17;;;1.17;;
11933;SDS011;6026;48.784;9.198;2023-07-13T15:08:07;1.20;;;1.20;;
11933;SDS011;6026;48.784;9.198;2023-07-13T15:10:35;1.10;;;1.10;;
11933;SDS011;6026;48.784;9.198;2023-07-13T15:13:13;1.17;;;1.17;;
11933;SDS011;6026;48.784;9.198;2023-07-13T15:15:42;1.10;;;1.10;;
11933;SDS011;6026;48.784;9.198;2023-07-13T15:18:11;1.17;;;1.17;;
11933;SDS011;6026;48.784;9.198;2023-07-13T15:20:37;1.10;;;1.10;;
11933;SDS011;6026;48.784;9.198;2023-07-13T15:23:03;1.10;;;1.10;;
11933;SDS011;6026;48.784;9.198;2023-07-13T15:25:30;1.00;;;1.00;;
11933;SDS011;6026;48.784;9.198;2023-07-13T15:27:58;1.10;;;1.10;;
11933;SDS011;6026;48.784;9.198;2023-07-13T15:30:25;1.05;;;1.05;;
11933;SDS011;6026;48.784;9.198;2023-07-13T15:32:54;1.10;;;1.10;;
11933;SDS011;6026;48.784;9.198;2023-07-13T15:35:24;1.02;;;1.02;;
11933;SDS011;6026;48.784;9.198;2023-07-13T15:37:51;1.10;;;1.10;;
11933;SDS011;6026;48.784;9.198;2023-07-13T15:40:17;1.10;;;1.10;;
11933;SDS011;6026;48.784;9.198;2023-07-13T15:42:44;1.00;;;1.00;;
11933;SDS011;6026;48.784;9.198;2023-07-13T15:45:14;0.85;;;0.85;;
11933;SDS011;6026;48.784;9.198;2023-07-13T15:47:42;1.00;;;1.00;;
11933;SDS011;6026;48.784;9.198;2023-07-13T15:50:13;1.00;;;1.00;;
11933;SDS011;6026;48.784;9.198;2023-07-13T15:52:44;1.08;;;1.08;;
11933;SDS011;6026;48.784;9.198;2023-07-13T15:55:13;1.10;;;1.10;;
11933;SDS011;6026;48.784;9.198;2023-07-13T15:57:41;0.95;;;0.95;;
11933;SDS011;6026;48.784;9.198;2023-07-13T16:00:14;0.90;;;0.90;;
11933;SDS011;6026;48.784;9.198;2023-07-13T16:02:45;1.00;;;1.00;;